sensor_id;sensor_type;location;lat;lon;timestamp;pressure;altitude;pressure_sealevel;temperature;humidity
73422;BME280;61637;47.760;-122.022;2024-02-15T00:00:00;101049.87759999999;;;7.6;53.0
73422;BME280;61637;47.760;-122.022;2024-02-15T00:02:00;101049.87759999999;;;7.6;61.0
73422;BME280;61637;47.760;-122.022;2024-02-15T00:04:00;101049.87759999999;;;7.5;59.0
73422;BME280;61637;47.760;-122.022;2024-02-15T00:06:00;101083.7415;;;7.4;59.0
73422;BME280;61637;47.760;-122.022;2024-02-15T00:08:00;101083.7415;;;7.4;60.0
73422;BME280;61637;47.760;-122.022;2024-02-15T00:10:00;101049.87759999999;;;7.4;61.0
73422;BME280;61637;47.760;-122.022;2024-02-15T00:12:00;101049.87759999999;;;7.4;58.0
73422;BME280;61637;47.760;-122.022;2024-02-15T00:14:00;101049.87759999999;;;7.4;58.0
73422;BME280;61637;47.760;-122.022;2024-02-15T00:16:00;101083.7415;;;7.3;60.0
73422;BME280;61637;47.760;-122.022;2024-02-15T00:18:00;101049.87759999999;;;7.3;62.0
73422;BME280;61637;47.760;-122.022;2024-02-15T00:20:00;101049.87759999999;;;7.3;62.0
73422;BME280;61637;47.760;-122.022;2024-02-15T00:22:00;101049.87759999999;;;7.3;62.0
73422;BME280;61637;47.760;-122.022;2024-02-15T00:24:00;101083.7415;;;7.3;63.0
73422;BME280;61637;47.760;-122.022;2024-02-15T00:26:00;101083.7415;;;7.3;63.0
73422;BME280;61637;47.760;-122.022;2024-02-15T00:28:00;101049.87759999999;;;7.2;60.0
73422;BME280;61637;47.760;-122.022;2024-02-15T00:30:00;101083.7415;;;7.2;62.0
73422;BME280;61637;47.760;-122.022;2024-02-15T00:32:00;101049.87759999999;;;7.1;61.0
73422;BME280;61637;47.760;-122.022;2024-02-15T00:34:00;101049.87759999999;;;7.1;66.0
73422;BME280;61637;47.760;-122.022;2024-02-15T00:36:00;101083.7415;;;7.0;65.0
73422;BME280;61637;47.760;-122.022;2024-02-15T00:38:00;101049.87759999999;;;6.9;62.0
73422;BME280;61637;47.760;-122.022;2024-02-15T00:40:00;101049.87759999999;;;6.9;65.0
73422;BME280;61637;47.760;-122.022;2024-02-15T00:42:01;101083.7415;;;6.8;66.0
73422;BME280;61637;47.760;-122.022;2024-02-15T00:44:00;101083.7415;;;6.8;61.0
73422;BME280;61637;47.760;-122.022;2024-02-15T00:46:00;101083.7415;;;6.7;64.0
73422;BME280;61637;47.760;-122.022;2024-02-15T00:48:00;101083.7415;;;6.7;68.0
73422;BME280;61637;47.760;-122.022;2024-02-15T00:50:00;101083.7415;;;6.6;63.0
73422;BME280;61637;47.760;-122.022;2024-02-15T00:52:02;101049.87759999999;;;6.6;66.0
73422;BME280;61637;47.760;-122.022;2024-02-15T00:54:01;101083.7415;;;6.4;67.0
73422;BME280;61637;47.760;-122.022;2024-02-15T00:56:00;101083.7415;;;6.4;68.0
73422;BME280;61637;47.760;-122.022;2024-02-15T00:58:00;101049.87759999999;;;6.4;69.0
73422;BME280;61637;47.760;-122.022;2024-02-15T01:00:00;101049.87759999999;;;6.3;66.0
73422;BME280;61637;47.760;-122.022;2024-02-15T01:02:00;101049.87759999999;;;6.2;65.0
73422;BME280;61637;47.760;-122.022;2024-02-15T01:04:00;101049.87759999999;;;6.2;66.0
73422;BME280;61637;47.760;-122.022;2024-02-15T01:06:00;101049.87759999999;;;6.1;68.0
73422;BME280;61637;47.760;-122.022;2024-02-15T01:08:00;101049.87759999999;;;6.1;64.0
73422;BME280;61637;47.760;-122.022;2024-02-15T01:10:00;101049.87759999999;;;6.1;66.0
73422;BME280;61637;47.760;-122.022;2024-02-15T01:12:00;101049.87759999999;;;6.0;64.0
73422;BME280;61637;47.760;-122.022;2024-02-15T01:14:00;101049.87759999999;;;5.9;60.0
73422;BME280;61637;47.760;-122.022;2024-02-15T01:16:00;101049.87759999999;;;5.9;66.0
73422;BME280;61637;47.760;-122.022;2024-02-15T01:18:00;101049.87759999999;;;5.9;66.0
73422;BME280;61637;47.760;-122.022;2024-02-15T01:20:00;101049.87759999999;;;5.8;68.0
73422;BME280;61637;47.760;-122.022;2024-02-15T01:22:00;101049.87759999999;;;5.8;64.0
73422;BME280;61637;47.760;-122.022;2024-02-15T01:24:00;101049.87759999999;;;5.8;61.0
73422;BME280;61637;47.760;-122.022;2024-02-15T01:26:00;101049.87759999999;;;5.7;67.0
73422;BME280;61637;47.760;-122.022;2024-02-15T01:28:00;101049.87759999999;;;5.7;64.0
73422;BME280;61637;47.760;-122.022;2024-02-15T01:30:01;101049.87759999999;;;5.7;69.0
73422;BME280;61637;47.760;-122.022;2024-02-15T01:32:00;101049.87759999999;;;5.6;68.0
73422;BME280;61637;47.760;-122.022;2024-02-15T01:34:00;101049.87759999999;;;5.6;71.0
73422;BME280;61637;47.760;-122.022;2024-02-15T01:36:00;101049.87759999999;;;5.6;67.0
73422;BME280;61637;47.760;-122.022;2024-02-15T01:38:00;101049.87759999999;;;5.5;72.0
73422;BME280;61637;47.760;-122.022;2024-02-15T01:40:00;101049.87759999999;;;5.4;71.0
73422;BME280;61637;47.760;-122.022;2024-02-15T01:42:00;101049.87759999999;;;5.4;72.0
73422;BME280;61637;47.760;-122.022;2024-02-15T01:44:00;101016.0137;;;5.4;70.0
73422;BME280;61637;47.760;-122.022;2024-02-15T01:46:00;101049.87759999999;;;5.3;71.0
73422;BME280;61637;47.760;-122.022;2024-02-15T01:48:00;101049.87759999999;;;5.3;73.0
73422;BME280;61637;47.760;-122.022;2024-02-15T01:50:00;101016.0137;;;5.3;67.0
73422;BME280;61637;47.760;-122.022;2024-02-15T01:52:00;101049.87759999999;;;5.2;72.0
73422;BME280;61637;47.760;-122.022;2024-02-15T01:54:00;101016.0137;;;5.2;75.0
73422;BME280;61637;47.760;-122.022;2024-02-15T01:56:00;101049.87759999999;;;5.2;73.0
73422;BME280;61637;47.760;-122.022;2024-02-15T01:58:01;101049.87759999999;;;5.2;73.0
73422;BME280;61637;47.760;-122.022;2024-02-15T02:00:00;101049.87759999999;;;5.1;72.0
73422;BME280;61637;47.760;-122.022;2024-02-15T02:02:00;101049.87759999999;;;5.1;76.0
73422;BME280;61637;47.760;-122.022;2024-02-15T02:04:00;101049.87759999999;;;5.1;74.0
73422;BME280;61637;47.760;-122.022;2024-02-15T02:06:00;101049.87759999999;;;5.1;71.0
73422;BME280;61637;47.760;-122.022;2024-02-15T02:08:00;101049.87759999999;;;5.1;75.0
73422;BME280;61637;47.760;-122.022;2024-02-15T02:10:00;101049.87759999999;;;5.1;71.0
73422;BME280;61637;47.760;-122.022;2024-02-15T02:12:00;101049.87759999999;;;5.1;70.0
73422;BME280;61637;47.760;-122.022;2024-02-15T02:14:00;101049.87759999999;;;5.1;72.0
73422;BME280;61637;47.760;-122.022;2024-02-15T02:16:00;101049.87759999999;;;5.1;74.0
73422;BME280;61637;47.760;-122.022;2024-02-15T02:18:00;101049.87759999999;;;5.1;68.0
73422;BME280;61637;47.760;-122.022;2024-02-15T02:20:00;101049.87759999999;;;5.1;68.0
73422;BME280;61637;47.760;-122.022;2024-02-15T02:22:00;101049.87759999999;;;5.0;67.0
73422;BME280;61637;47.760;-122.022;2024-02-15T02:24:02;101049.87759999999;;;5.0;65.0
73422;BME280;61637;47.760;-122.022;2024-02-15T02:26:00;101049.87759999999;;;5.1;69.0
73422;BME280;61637;47.760;-122.022;2024-02-15T02:28:00;101049.87759999999;;;5.1;70.0
73422;BME280;61637;47.760;-122.022;2024-02-15T02:30:00;101049.87759999999;;;5.1;72.0
73422;BME280;61637;47.760;-122.022;2024-02-15T02:32:00;101049.87759999999;;;5.1;72.0
73422;BME280;61637;47.760;-122.022;2024-02-15T02:34:00;101049.87759999999;;;5.1;72.0
73422;BME280;61637;47.760;-122.022;2024-02-15T02:36:00;101049.87759999999;;;5.1;70.0
73422;BME280;61637;47.760;-122.022;2024-02-15T02:38:01;101049.87759999999;;;5.0;69.0
73422;BME280;61637;47.760;-122.022;2024-02-15T02:40:00;101049.87759999999;;;5.0;68.0
73422;BME280;61637;47.760;-122.022;2024-02-15T02:42:00;101049.87759999999;;;5.0;68.0
73422;BME280;61637;47.760;-122.022;2024-02-15T02:44:00;101049.87759999999;;;4.9;69.0
73422;BME280;61637;47.760;-122.022;2024-02-15T02:46:02;101049.87759999999;;;4.9;64.0
73422;BME280;61637;47.760;-122.022;2024-02-15T02:48:00;101049.87759999999;;;4.9;64.0
73422;BME280;61637;47.760;-122.022;2024-02-15T02:50:00;101049.87759999999;;;5.0;63.0
73422;BME280;61637;47.760;-122.022;2024-02-15T02:52:00;101049.87759999999;;;5.0;63.0
73422;BME280;61637;47.760;-122.022;2024-02-15T02:54:00;101083.7415;;;5.1;61.0
73422;BME280;61637;47.760;-122.022;2024-02-15T02:56:00;101083.7415;;;5.1;67.0
73422;BME280;61637;47.760;-122.022;2024-02-15T02:58:00;101083.7415;;;5.2;64.0
73422;BME280;61637;47.760;-122.022;2024-02-15T03:00:01;101083.7415;;;5.1;60.0
73422;BME280;61637;47.760;-122.022;2024-02-15T03:02:00;101083.7415;;;5.2;57.0
73422;BME280;61637;47.760;-122.022;2024-02-15T03:04:00;101083.7415;;;5.3;62.0
73422;BME280;61637;47.760;-122.022;2024-02-15T03:06:00;101083.7415;;;5.3;58.0
73422;BME280;61637;47.760;-122.022;2024-02-15T03:08:00;101083.7415;;;5.3;60.0
73422;BME280;61637;47.760;-122.022;2024-02-15T03:10:00;101083.7415;;;5.3;60.0
73422;BME280;61637;47.760;-122.022;2024-02-15T03:12:00;101083.7415;;;5.3;59.0
73422;BME280;61637;47.760;-122.022;2024-02-15T03:14:01;101083.7415;;;5.3;61.0
73422;BME280;61637;47.760;-122.022;2024-02-15T03:16:00;101083.7415;;;5.3;57.0
73422;BME280;61637;47.760;-122.022;2024-02-15T03:18:01;101083.7415;;;5.3;55.0
73422;BME280;61637;47.760;-122.022;2024-02-15T03:20:00;101083.7415;;;5.3;56.0
73422;BME280;61637;47.760;-122.022;2024-02-15T03:22:00;101083.7415;;;5.4;58.0
73422;BME280;61637;47.760;-122.022;2024-02-15T03:24:00;101083.7415;;;5.3;57.0
73422;BME280;61637;47.760;-122.022;2024-02-15T03:26:01;101083.7415;;;5.3;58.0
73422;BME280;61637;47.760;-122.022;2024-02-15T03:28:00;101083.7415;;;5.3;63.0
73422;BME280;61637;47.760;-122.022;2024-02-15T03:30:01;101083.7415;;;5.3;58.0
73422;BME280;61637;47.760;-122.022;2024-02-15T03:32:00;101083.7415;;;5.3;60.0
73422;BME280;61637;47.760;-122.022;2024-02-15T03:34:00;101083.7415;;;5.2;56.0
73422;BME280;61637;47.760;-122.022;2024-02-15T03:36:00;101083.7415;;;5.3;57.0
73422;BME280;61637;47.760;-122.022;2024-02-15T03:38:00;101083.7415;;;5.2;63.0
73422;BME280;61637;47.760;-122.022;2024-02-15T03:40:00;101083.7415;;;5.2;66.0
73422;BME280;61637;47.760;-122.022;2024-02-15T03:42:01;101083.7415;;;5.2;63.0
73422;BME280;61637;47.760;-122.022;2024-02-15T03:44:00;101083.7415;;;5.1;63.0
73422;BME280;61637;47.760;-122.022;2024-02-15T03:46:00;101083.7415;;;5.1;61.0
73422;BME280;61637;47.760;-122.022;2024-02-15T03:48:00;101083.7415;;;5.1;57.0
73422;BME280;61637;47.760;-122.022;2024-02-15T03:50:00;101083.7415;;;5.1;59.0
73422;BME280;61637;47.760;-122.022;2024-02-15T03:52:00;101083.7415;;;5.1;61.0
73422;BME280;61637;47.760;-122.022;2024-02-15T03:54:01;101083.7415;;;5.1;57.0
73422;BME280;61637;47.760;-122.022;2024-02-15T03:56:00;101083.7415;;;5.1;59.0
73422;BME280;61637;47.760;-122.022;2024-02-15T03:58:00;101117.6054;;;5.1;56.0
73422;BME280;61637;47.760;-122.022;2024-02-15T04:00:00;101117.6054;;;5.2;54.0
73422;BME280;61637;47.760;-122.022;2024-02-15T04:02:00;101117.6054;;;5.2;54.0
73422;BME280;61637;47.760;-122.022;2024-02-15T04:04:00;101117.6054;;;5.3;60.0
73422;BME280;61637;47.760;-122.022;2024-02-15T04:06:01;101117.6054;;;5.2;58.0
73422;BME280;61637;47.760;-122.022;2024-02-15T04:08:00;101117.6054;;;5.2;61.0
73422;BME280;61637;47.760;-122.022;2024-02-15T04:10:00;101117.6054;;;5.2;58.0
73422;BME280;61637;47.760;-122.022;2024-02-15T04:12:00;101117.6054;;;5.1;62.0
73422;BME280;61637;47.760;-122.022;2024-02-15T04:14:00;101117.6054;;;5.1;66.0
73422;BME280;61637;47.760;-122.022;2024-02-15T04:16:00;101083.7415;;;4.9;67.0
73422;BME280;61637;47.760;-122.022;2024-02-15T04:18:00;101083.7415;;;4.8;65.0
73422;BME280;61637;47.760;-122.022;2024-02-15T04:20:00;101083.7415;;;4.8;67.0
73422;BME280;61637;47.760;-122.022;2024-02-15T04:22:00;101117.6054;;;4.8;67.0
73422;BME280;61637;47.760;-122.022;2024-02-15T04:24:00;101083.7415;;;4.7;67.0
73422;BME280;61637;47.760;-122.022;2024-02-15T04:26:00;101083.7415;;;4.7;69.0
73422;BME280;61637;47.760;-122.022;2024-02-15T04:28:00;101083.7415;;;4.7;70.0
73422;BME280;61637;47.760;-122.022;2024-02-15T04:30:00;101083.7415;;;4.6;71.0
73422;BME280;61637;47.760;-122.022;2024-02-15T04:32:01;101083.7415;;;4.6;72.0
73422;BME280;61637;47.760;-122.022;2024-02-15T04:34:00;101083.7415;;;4.6;73.0
73422;BME280;61637;47.760;-122.022;2024-02-15T04:36:00;101083.7415;;;4.5;73.0
73422;BME280;61637;47.760;-122.022;2024-02-15T04:38:00;101083.7415;;;4.4;70.0
73422;BME280;61637;47.760;-122.022;2024-02-15T04:40:00;101083.7415;;;4.4;70.0
73422;BME280;61637;47.760;-122.022;2024-02-15T04:42:00;101083.7415;;;4.4;69.0
73422;BME280;61637;47.760;-122.022;2024-02-15T04:44:00;101083.7415;;;4.3;71.0
73422;BME280;61637;47.760;-122.022;2024-02-15T04:46:00;101083.7415;;;4.3;71.0
73422;BME280;61637;47.760;-122.022;2024-02-15T04:48:00;101083.7415;;;4.3;68.0
73422;BME280;61637;47.760;-122.022;2024-02-15T04:50:00;101083.7415;;;4.3;67.0
73422;BME280;61637;47.760;-122.022;2024-02-15T04:52:00;101083.7415;;;4.3;70.0
73422;BME280;61637;47.760;-122.022;2024-02-15T04:54:00;101083.7415;;;4.3;67.0
73422;BME280;61637;47.760;-122.022;2024-02-15T04:56:00;101083.7415;;;4.3;71.0
73422;BME280;61637;47.760;-122.022;2024-02-15T04:58:00;101083.7415;;;4.4;69.0
73422;BME280;61637;47.760;-122.022;2024-02-15T05:00:00;101083.7415;;;4.4;70.0
73422;BME280;61637;47.760;-122.022;2024-02-15T05:02:00;101083.7415;;;4.3;71.0
73422;BME280;61637;47.760;-122.022;2024-02-15T05:04:00;101083.7415;;;4.3;67.0
73422;BME280;61637;47.760;-122.022;2024-02-15T05:06:00;101083.7415;;;4.3;72.0
73422;BME280;61637;47.760;-122.022;2024-02-15T05:08:00;101083.7415;;;4.3;72.0
73422;BME280;61637;47.760;-122.022;2024-02-15T05:10:00;101083.7415;;;4.3;70.0
73422;BME280;61637;47.760;-122.022;2024-02-15T05:12:01;101083.7415;;;4.3;68.0
73422;BME280;61637;47.760;-122.022;2024-02-15T05:14:01;101083.7415;;;4.3;68.0
73422;BME280;61637;47.760;-122.022;2024-02-15T05:16:00;101083.7415;;;4.3;67.0
73422;BME280;61637;47.760;-122.022;2024-02-15T05:18:01;101083.7415;;;4.3;71.0
73422;BME280;61637;47.760;-122.022;2024-02-15T05:20:00;101083.7415;;;4.3;71.0
73422;BME280;61637;47.760;-122.022;2024-02-15T05:22:00;101083.7415;;;4.3;72.0
73422;BME280;61637;47.760;-122.022;2024-02-15T05:24:00;101083.7415;;;4.3;68.0
73422;BME280;61637;47.760;-122.022;2024-02-15T05:26:00;101083.7415;;;4.3;70.0
73422;BME280;61637;47.760;-122.022;2024-02-15T05:28:00;101083.7415;;;4.3;70.0
73422;BME280;61637;47.760;-122.022;2024-02-15T05:30:01;101083.7415;;;4.3;72.0
73422;BME280;61637;47.760;-122.022;2024-02-15T05:32:00;101083.7415;;;4.3;73.0
73422;BME280;61637;47.760;-122.022;2024-02-15T05:34:00;101083.7415;;;4.2;71.0
73422;BME280;61637;47.760;-122.022;2024-02-15T05:36:00;101083.7415;;;4.2;71.0
73422;BME280;61637;47.760;-122.022;2024-02-15T05:38:00;101083.7415;;;4.2;70.0
73422;BME280;61637;47.760;-122.022;2024-02-15T05:40:00;101083.7415;;;4.2;69.0
73422;BME280;61637;47.760;-122.022;2024-02-15T05:42:02;101083.7415;;;4.3;70.0
73422;BME280;61637;47.760;-122.022;2024-02-15T05:44:00;101083.7415;;;4.2;71.0
73422;BME280;61637;47.760;-122.022;2024-02-15T05:46:00;101083.7415;;;4.2;72.0
73422;BME280;61637;47.760;-122.022;2024-02-15T05:48:00;101083.7415;;;4.2;71.0
73422;BME280;61637;47.760;-122.022;2024-02-15T05:50:00;101083.7415;;;4.2;72.0
73422;BME280;61637;47.760;-122.022;2024-02-15T05:52:00;101117.6054;;;4.2;68.0
73422;BME280;61637;47.760;-122.022;2024-02-15T05:54:00;101117.6054;;;4.2;69.0
73422;BME280;61637;47.760;-122.022;2024-02-15T05:56:00;101083.7415;;;4.2;63.0
73422;BME280;61637;47.760;-122.022;2024-02-15T05:58:01;101083.7415;;;4.3;64.0
73422;BME280;61637;47.760;-122.022;2024-02-15T06:00:00;101083.7415;;;4.4;63.0
73422;BME280;61637;47.760;-122.022;2024-02-15T06:02:00;101117.6054;;;4.4;62.0
73422;BME280;61637;47.760;-122.022;2024-02-15T06:04:00;101117.6054;;;4.6;61.0
73422;BME280;61637;47.760;-122.022;2024-02-15T06:06:00;101083.7415;;;4.6;64.0
73422;BME280;61637;47.760;-122.022;2024-02-15T06:08:00;101117.6054;;;4.6;65.0
73422;BME280;61637;47.760;-122.022;2024-02-15T06:10:00;101117.6054;;;4.7;63.0
73422;BME280;61637;47.760;-122.022;2024-02-15T06:12:00;101117.6054;;;4.7;64.0
73422;BME280;61637;47.760;-122.022;2024-02-15T06:14:00;101083.7415;;;4.6;64.0
73422;BME280;61637;47.760;-122.022;2024-02-15T06:16:00;101117.6054;;;4.6;64.0
73422;BME280;61637;47.760;-122.022;2024-02-15T06:18:00;101117.6054;;;4.6;68.0
73422;BME280;61637;47.760;-122.022;2024-02-15T06:20:00;101117.6054;;;4.6;69.0
73422;BME280;61637;47.760;-122.022;2024-02-15T06:22:00;101083.7415;;;4.5;68.0
73422;BME280;61637;47.760;-122.022;2024-02-15T06:24:00;101117.6054;;;4.4;69.0
73422;BME280;61637;47.760;-122.022;2024-02-15T06:26:00;101117.6054;;;4.3;68.0
73422;BME280;61637;47.760;-122.022;2024-02-15T06:28:00;101117.6054;;;4.3;68.0
73422;BME280;61637;47.760;-122.022;2024-02-15T06:30:00;101117.6054;;;4.2;71.0
73422;BME280;61637;47.760;-122.022;2024-02-15T06:32:00;101117.6054;;;4.2;71.0
73422;BME280;61637;47.760;-122.022;2024-02-15T06:34:00;101083.7415;;;4.1;71.0
73422;BME280;61637;47.760;-122.022;2024-02-15T06:36:03;101117.6054;;;4.0;71.0
73422;BME280;61637;47.760;-122.022;2024-02-15T06:38:00;101083.7415;;;3.9;73.0
73422;BME280;61637;47.760;-122.022;2024-02-15T06:40:00;101083.7415;;;3.8;73.0
73422;BME280;61637;47.760;-122.022;2024-02-15T06:42:01;101083.7415;;;3.8;73.0
73422;BME280;61637;47.760;-122.022;2024-02-15T06:44:00;101083.7415;;;3.7;75.0
73422;BME280;61637;47.760;-122.022;2024-02-15T06:46:00;101083.7415;;;3.6;77.0
73422;BME280;61637;47.760;-122.022;2024-02-15T06:48:00;101083.7415;;;3.5;76.0
73422;BME280;61637;47.760;-122.022;2024-02-15T06:50:00;101083.7415;;;3.3;77.0
73422;BME280;61637;47.760;-122.022;2024-02-15T06:52:00;101083.7415;;;3.2;78.0
73422;BME280;61637;47.760;-122.022;2024-02-15T06:54:01;101083.7415;;;3.1;80.0
73422;BME280;61637;47.760;-122.022;2024-02-15T06:56:00;101049.87759999999;;;3.0;82.0
73422;BME280;61637;47.760;-122.022;2024-02-15T06:58:00;101083.7415;;;2.9;82.0
73422;BME280;61637;47.760;-122.022;2024-02-15T07:00:00;101083.7415;;;2.8;83.0
73422;BME280;61637;47.760;-122.022;2024-02-15T07:02:01;101083.7415;;;2.8;83.0
73422;BME280;61637;47.760;-122.022;2024-02-15T07:04:00;101049.87759999999;;;2.7;84.0
73422;BME280;61637;47.760;-122.022;2024-02-15T07:06:00;101049.87759999999;;;2.7;85.0
73422;BME280;61637;47.760;-122.022;2024-02-15T07:08:00;101049.87759999999;;;2.7;85.0
73422;BME280;61637;47.760;-122.022;2024-02-15T07:10:00;101049.87759999999;;;2.6;86.0
73422;BME280;61637;47.760;-122.022;2024-02-15T07:12:00;101049.87759999999;;;2.6;87.0
73422;BME280;61637;47.760;-122.022;2024-02-15T07:14:00;101049.87759999999;;;2.6;87.0
73422;BME280;61637;47.760;-122.022;2024-02-15T07:16:00;101049.87759999999;;;2.6;87.0
73422;BME280;61637;47.760;-122.022;2024-02-15T07:18:01;101049.87759999999;;;2.5;87.0
73422;BME280;61637;47.760;-122.022;2024-02-15T07:20:00;101049.87759999999;;;2.4;88.0
73422;BME280;61637;47.760;-122.022;2024-02-15T07:22:00;101049.87759999999;;;2.4;88.0
73422;BME280;61637;47.760;-122.022;2024-02-15T07:24:00;101049.87759999999;;;2.4;89.0
73422;BME280;61637;47.760;-122.022;2024-02-15T07:26:00;101049.87759999999;;;2.3;88.0
73422;BME280;61637;47.760;-122.022;2024-02-15T07:28:00;101049.87759999999;;;2.3;88.0
73422;BME280;61637;47.760;-122.022;2024-02-15T07:30:00;101049.87759999999;;;2.3;88.0
73422;BME280;61637;47.760;-122.022;2024-02-15T07:32:01;101049.87759999999;;;2.3;88.0
73422;BME280;61637;47.760;-122.022;2024-02-15T07:34:00;101049.87759999999;;;2.3;89.0
73422;BME280;61637;47.760;-122.022;2024-02-15T07:36:00;101049.87759999999;;;2.3;89.0
73422;BME280;61637;47.760;-122.022;2024-02-15T07:38:00;101049.87759999999;;;2.3;89.0
73422;BME280;61637;47.760;-122.022;2024-02-15T07:40:00;101049.87759999999;;;2.2;90.0
73422;BME280;61637;47.760;-122.022;2024-02-15T07:42:00;101049.87759999999;;;2.2;90.0
73422;BME280;61637;47.760;-122.022;2024-02-15T07:44:00;101016.0137;;;2.2;90.0
73422;BME280;61637;47.760;-122.022;2024-02-15T07:46:00;101016.0137;;;2.2;90.0
73422;BME280;61637;47.760;-122.022;2024-02-15T07:48:00;101016.0137;;;2.2;90.0
73422;BME280;61637;47.760;-122.022;2024-02-15T07:50:00;101016.0137;;;2.2;91.0
73422;BME280;61637;47.760;-122.022;2024-02-15T07:52:00;101016.0137;;;2.2;91.0
73422;BME280;61637;47.760;-122.022;2024-02-15T07:54:01;101016.0137;;;2.1;91.0
73422;BME280;61637;47.760;-122.022;2024-02-15T07:56:00;101016.0137;;;2.1;91.0
73422;BME280;61637;47.760;-122.022;2024-02-15T07:58:00;101016.0137;;;2.1;91.0
73422;BME280;61637;47.760;-122.022;2024-02-15T08:00:00;101016.0137;;;2.1;91.0
73422;BME280;61637;47.760;-122.022;2024-02-15T08:02:00;101016.0137;;;2.1;91.0
73422;BME280;61637;47.760;-122.022;2024-02-15T08:04:00;101016.0137;;;2.1;91.0
73422;BME280;61637;47.760;-122.022;2024-02-15T08:06:01;101016.0137;;;2.1;91.0
73422;BME280;61637;47.760;-122.022;2024-02-15T08:08:00;101016.0137;;;2.1;91.0
73422;BME280;61637;47.760;-122.022;2024-02-15T08:10:00;101016.0137;;;2.1;92.0
73422;BME280;61637;47.760;-122.022;2024-02-15T08:12:00;101016.0137;;;2.1;92.0
73422;BME280;61637;47.760;-122.022;2024-02-15T08:14:00;101016.0137;;;2.1;92.0
73422;BME280;61637;47.760;-122.022;2024-02-15T08:16:00;101016.0137;;;2.1;92.0
73422;BME280;61637;47.760;-122.022;2024-02-15T08:18:00;101016.0137;;;2.1;92.0
73422;BME280;61637;47.760;-122.022;2024-02-15T08:20:00;101016.0137;;;2.2;92.0
73422;BME280;61637;47.760;-122.022;2024-02-15T08:22:03;101016.0137;;;2.1;92.0
73422;BME280;61637;47.760;-122.022;2024-02-15T08:24:00;101016.0137;;;2.2;92.0
73422;BME280;61637;47.760;-122.022;2024-02-15T08:26:00;101016.0137;;;2.2;92.0
73422;BME280;61637;47.760;-122.022;2024-02-15T08:28:00;101016.0137;;;2.2;92.0
73422;BME280;61637;47.760;-122.022;2024-02-15T08:30:00;101016.0137;;;2.1;92.0
73422;BME280;61637;47.760;-122.022;2024-02-15T08:32:00;101016.0137;;;2.1;92.0
73422;BME280;61637;47.760;-122.022;2024-02-15T08:34:01;101016.0137;;;2.1;92.0
73422;BME280;61637;47.760;-122.022;2024-02-15T08:36:00;101016.0137;;;2.1;92.0
73422;BME280;61637;47.760;-122.022;2024-02-15T08:38:00;101016.0137;;;2.1;92.0
73422;BME280;61637;47.760;-122.022;2024-02-15T08:40:00;101016.0137;;;2.1;91.0
73422;BME280;61637;47.760;-122.022;2024-02-15T08:42:01;101016.0137;;;2.0;91.0
73422;BME280;61637;47.760;-122.022;2024-02-15T08:44:00;101016.0137;;;1.9;91.0
73422;BME280;61637;47.760;-122.022;2024-02-15T08:46:00;101016.0137;;;1.9;91.0
73422;BME280;61637;47.760;-122.022;2024-02-15T08:48:00;101016.0137;;;1.8;92.0
73422;BME280;61637;47.760;-122.022;2024-02-15T08:50:00;100982.1498;;;1.8;92.0
73422;BME280;61637;47.760;-122.022;2024-02-15T08:52:00;101016.0137;;;1.7;92.0
73422;BME280;61637;47.760;-122.022;2024-02-15T08:54:01;100982.1498;;;1.7;92.0
73422;BME280;61637;47.760;-122.022;2024-02-15T08:56:00;101016.0137;;;1.6;92.0
73422;BME280;61637;47.760;-122.022;2024-02-15T08:58:00;101016.0137;;;1.6;92.0
73422;BME280;61637;47.760;-122.022;2024-02-15T09:00:01;101016.0137;;;1.5;92.0
73422;BME280;61637;47.760;-122.022;2024-02-15T09:02:00;101016.0137;;;1.5;92.0
73422;BME280;61637;47.760;-122.022;2024-02-15T09:04:00;100982.1498;;;1.4;92.0
73422;BME280;61637;47.760;-122.022;2024-02-15T09:06:00;101016.0137;;;1.4;93.0
73422;BME280;61637;47.760;-122.022;2024-02-15T09:08:00;100982.1498;;;1.4;93.0
73422;BME280;61637;47.760;-122.022;2024-02-15T09:10:00;100982.1498;;;1.4;93.0
73422;BME280;61637;47.760;-122.022;2024-02-15T09:12:01;100982.1498;;;1.3;93.0
73422;BME280;61637;47.760;-122.022;2024-02-15T09:14:00;100982.1498;;;1.3;94.0
73422;BME280;61637;47.760;-122.022;2024-02-15T09:16:00;100982.1498;;;1.3;94.0
73422;BME280;61637;47.760;-122.022;2024-02-15T09:18:01;101016.0137;;;1.3;94.0
73422;BME280;61637;47.760;-122.022;2024-02-15T09:20:00;100982.1498;;;1.3;94.0
73422;BME280;61637;47.760;-122.022;2024-02-15T09:22:00;100982.1498;;;1.3;94.0
73422;BME280;61637;47.760;-122.022;2024-02-15T09:24:00;100982.1498;;;1.3;94.0
73422;BME280;61637;47.760;-122.022;2024-02-15T09:26:01;100982.1498;;;1.3;94.0
73422;BME280;61637;47.760;-122.022;2024-02-15T09:28:00;100982.1498;;;1.3;94.0
73422;BME280;61637;47.760;-122.022;2024-02-15T09:30:00;100982.1498;;;1.2;94.0
73422;BME280;61637;47.760;-122.022;2024-02-15T09:32:00;100982.1498;;;1.2;94.0
73422;BME280;61637;47.760;-122.022;2024-02-15T09:34:01;101016.0137;;;1.2;94.0
73422;BME280;61637;47.760;-122.022;2024-02-15T09:36:00;100982.1498;;;1.2;94.0
73422;BME280;61637;47.760;-122.022;2024-02-15T09:38:00;100982.1498;;;1.1;94.0
73422;BME280;61637;47.760;-122.022;2024-02-15T09:40:00;100982.1498;;;1.1;94.0
73422;BME280;61637;47.760;-122.022;2024-02-15T09:42:00;100982.1498;;;1.1;94.0
73422;BME280;61637;47.760;-122.022;2024-02-15T09:44:00;100982.1498;;;1.0;94.0
73422;BME280;61637;47.760;-122.022;2024-02-15T09:46:00;100982.1498;;;1.0;94.0
73422;BME280;61637;47.760;-122.022;2024-02-15T09:48:01;100982.1498;;;0.9;94.0
73422;BME280;61637;47.760;-122.022;2024-02-15T09:50:00;100982.1498;;;0.9;94.0
73422;BME280;61637;47.760;-122.022;2024-02-15T09:52:00;100982.1498;;;0.9;94.0
73422;BME280;61637;47.760;-122.022;2024-02-15T09:54:00;100982.1498;;;0.9;95.0